Airfield :
LOGIN :

Register | Disclaimer

   EN    FR    IT 

 










Legend :    VFR   Marginal VFR   IFR   Intensive IFR   Very Intensive IFR
Visi :
Ceiling :
>= 8 km
>= 3000ft
5 to 8 km
1000 to 3000 ft
1500m to 5 km
500 to 1000 ft
800 to 1500m
200 to 500 ft
< 800m
< 200 ft
Symbols :   Thunderstorms  Fog  Heavy snow  Heavy precipitations  Wind > 20 kt
SIGMETs :     Misc.  Thunderstorms  Icing  Turbulence  Mountain Waves  Volcanic Ashes







- Airport Elevation : 392 ft
- IATA code : CDG
- Download approach charts


LFPG - Paris-Aeroport Charles De Gaulle

CURRENT METAR :
  • 301600Z 13014KT 9999 -RA NSC 18/05 Q0999 TEMPO VRB15G35KT 4000 RA BKN013 BKN025TCU

EXPIRED METARs :
  • 301530Z 14016KT CAVOK 18/04 Q0999 NOSIG
  • 301500Z 13014KT CAVOK 18/04 Q1000 NOSIG
  • 301430Z 14012KT 9999 -RA FEW043 BKN093 18/04 Q1000 NOSIG
  • 301400Z 18010KT 120V220 CAVOK 18/02 Q1001 NOSIG
  • 301330Z 17012KT 140V200 CAVOK 18/02 Q1001 NOSIG

TAF AMD TAF LFPG
Valid from the 30 at 13:00 until the 01 at 18:00 UTC


301344Z 3013/0118 16015G25KT CAVOK
PROB40
TEMPO 3016/3019 VRB15G35KT 3500 -TSRA BKN020 BKN030CB
PROB30
TEMPO 3016/3019 2500 -TSGS
PROB40
TEMPO 3016/3023 4000 RA BKN013 BKN025TCU
BECMG 3016/3018 20015G25KT BKN020
PROB40
TEMPO 0103/0109 -SHRA BKN014
TEMPO 0113/0118 -SHRA BKN030TCU
PROB30
TEMPO 0113/0118 4500 SHRA BKN020TCU TX19/3014Z TN07/0105Z
ATIS : +33 1 48 62 10 92
No reported NOTAMs for that airfield.
1 SIGMET reported for the Paris FIR (LFFF) :
 
Embedded thunderstorms
LFFF SIGMET 2 VALID 301500/301700 LFPW
LFFF PARIS FIR/UIR EMBD TS OBS WI N4645 E00230 - N4715 E00200 - N4745 E00200 - N4730 E00245 TOP FL300 MOV E 15KT NC=



MET'MAP, your aeronautical weather chart ! - Copyright ORBIFLY December 2007 - Disclaimer

ORBIFLY MET'MAP TEAM :

Programming & Development : Alexandra Zaïnal
Concept & Development : Baudouin d'Aumeries
Co-Development & Prog : Marc-Olivier Méhu
Technical & hardware support : Manuel Goepfert

Contact : metmap@orbifly.com




SOURCES & CREDITS :

   NOAA